»·PEaware :: N2344P KSBD-KEMT

N2344P :: KSBD-KEMT

FLIGHT INFORMATION

Flight Status: Arrived
Operator: Privately registered:
United States
More flights under this callsign
Pilot: Mylie M. (13886)
Aircraft: CESSNA 172 SKYHAWK
(C172)
More flights by this aircraft type
Origin: KSBD San Bernardino Intl
United States
Destination: KEMT El Monte
United States
More flights between these airports :: More routes between these airports
Route: +
File this flight plan on PilotEdge
Remarks: CAT7
Altitude:
(Current/Filed)
4,500ft
Speed:
(Current/Filed)
100kts
Departed: 19-May-17 12:35 PM
Arrived: 19-May-17 01:21 PM
Distance/Time
Traveled:
40nm/0:45
Distance/Time
To Go:
Arrived

Flight Plot

Page will automatically refresh every two minutes.


Map Options




Map Legend


Flown Route
Filed Route
Departure Airport
Arrival Airport
Navaid (VOR, NDB)
Fix

Horizontal Profiles

Position Reports

Time Latitude Longitude Heading Altitude Ground
Speed
19-May-17 12:15 34.098013 -117.243469 359 1161ft 0kts
19-May-17 12:16 34.098013 -117.243469 359 1161ft 0kts
19-May-17 12:17 34.098013 -117.243469 359 1161ft 0kts
19-May-17 12:18 34.098013 -117.243469 359 1161ft 0kts
19-May-17 12:19 34.098013 -117.243469 359 1161ft 0kts
19-May-17 12:20 34.098013 -117.243469 359 1161ft 0kts
19-May-17 12:21 34.098013 -117.243469 359 1161ft 0kts
19-May-17 12:22 34.098013 -117.243469 359 1161ft 0kts
19-May-17 12:23 34.098197 -117.243444 171 1161ft 3kts
19-May-17 12:24 34.098402 -117.239417 79 1161ft 17kts
19-May-17 12:25 34.096981 -117.236751 127 1161ft 12kts
19-May-17 12:26 34.097906 -117.232730 70 1161ft 24kts
19-May-17 12:27 34.099179 -117.228462 60 1161ft 19kts
19-May-17 12:28 34.099826 -117.225104 74 1161ft 16kts
19-May-17 12:29 34.100784 -117.221781 71 1161ft 16kts
19-May-17 12:30 34.100915 -117.219894 155 1161ft 0kts
19-May-17 12:31 34.100915 -117.219894 155 1161ft 0kts
19-May-17 12:32 34.100915 -117.219894 155 1161ft 0kts
19-May-17 12:33 34.100915 -117.219894 155 1161ft 0kts
19-May-17 12:34 34.100915 -117.219894 155 1161ft 0kts
19-May-17 12:35 34.100915 -117.219894 155 1161ft 0kts
19-May-17 12:36 34.099466 -117.221428 251 1161ft 27kts
19-May-17 12:37 34.094212 -117.233972 274 1522ft 69kts
19-May-17 12:38 34.090407 -117.252629 270 2058ft 89kts
19-May-17 12:39 34.087076 -117.271764 255 2645ft 94kts
19-May-17 12:40 34.074025 -117.288693 221 3137ft 105kts
19-May-17 12:41 34.054832 -117.299609 205 3011ft 106kts
19-May-17 12:42 34.048771 -117.289701 3 2961ft 80kts
19-May-17 12:43 34.051164 -117.302966 263 3439ft 84kts
19-May-17 12:44 34.047836 -117.317607 278 3905ft 75kts
19-May-17 12:45 34.049710 -117.332040 293 4420ft 71kts
19-May-17 12:46 34.052905 -117.349311 288 4493ft 94kts
19-May-17 12:47 34.057680 -117.368507 304 4431ft 93kts
19-May-17 12:48 34.064643 -117.384886 306 4440ft 89kts
19-May-17 12:49 34.071923 -117.400362 305 4441ft 89kts
19-May-17 12:50 34.074496 -117.419064 283 4441ft 94kts
19-May-17 12:51 34.075095 -117.438915 280 4443ft 100kts
19-May-17 12:52 34.075742 -117.458637 279 4448ft 101kts
19-May-17 12:53 34.077419 -117.481267 279 4450ft 103kts
19-May-17 12:54 34.079342 -117.503837 279 4449ft 101kts
19-May-17 12:55 34.081785 -117.527166 280 4449ft 100kts
19-May-17 12:56 34.084548 -117.549758 280 4448ft 99kts
19-May-17 12:57 34.086743 -117.571170 273 4448ft 99kts
19-May-17 12:58 34.087832 -117.593854 272 4447ft 99kts
19-May-17 12:59 34.088363 -117.612787 271 4447ft 98kts
19-May-17 13:00 34.088822 -117.632057 271 4446ft 99kts
19-May-17 13:01 34.089283 -117.650647 271 4446ft 98kts
19-May-17 13:02 34.089717 -117.671227 271 4467ft 99kts
19-May-17 13:03 34.090068 -117.695532 271 4467ft 100kts
19-May-17 13:04 34.090397 -117.717692 271 4467ft 100kts
19-May-17 13:05 34.090766 -117.742384 271 4467ft 100kts
19-May-17 13:06 34.091072 -117.762934 271 4467ft 101kts
19-May-17 13:07 34.091314 -117.783558 271 4467ft 101kts
19-May-17 13:08 34.091562 -117.804317 271 4467ft 101kts
19-May-17 13:09 34.092644 -117.827038 274 4467ft 101kts
19-May-17 13:10 34.094048 -117.850984 274 4467ft 101kts
19-May-17 13:11 34.095786 -117.875103 274 4438ft 100kts
19-May-17 13:12 34.097796 -117.896575 274 4432ft 85kts
19-May-17 13:13 34.099470 -117.912926 274 4435ft 72kts
19-May-17 13:14 34.101039 -117.927242 279 4440ft 72kts
19-May-17 13:15 34.106472 -117.945223 286 4109ft 98kts
19-May-17 13:16 34.112295 -117.967039 277 3698ft 101kts
19-May-17 13:17 34.115662 -117.988602 276 3286ft 90kts
19-May-17 13:18 34.117275 -118.001280 241 2837ft 55kts
19-May-17 13:19 34.116394 -118.012514 235 2198ft 57kts
19-May-17 13:20 34.109044 -118.021131 213 1500ft 64kts
19-May-17 13:21 34.099324 -118.027400 203 802ft 63kts
19-May-17 13:22 34.090246 -118.032433 202 327ft 55kts
19-May-17 13:23 34.085778 -118.034815 187 299ft 11kts
19-May-17 13:24 34.085463 -118.033815 91 299ft 5kts
19-May-17 13:25 34.085616 -118.033775 200 299ft 0kts
19-May-17 13:26 34.085616 -118.033775 200 299ft 0kts
19-May-17 13:27 34.085616 -118.033775 200 299ft 0kts
19-May-17 13:28 34.085616 -118.033775 200 299ft 0kts
19-May-17 13:29 34.085616 -118.033775 200 299ft 0kts

Navigation Log

Ident Type
1. KSBD Airport
2. KEMT Airport